In Rescue
 
Open Full Screen Window  High Contrast Mode
Wind Gusting 00 knots
06
January 18, 2019 8:22 AM EST
Weather Information
Wind Direction
  310 °
Wind Speed
  06 kt (7 mph)
Wind Gust
  00 kt (0 mph)
Altimeter
30.16 in
Visibility
7 SM
Temperature
01° C
34° F
Dewpoint
00° C
32° F
Humidity
93%
1hr Rain Fall
00.00 in.
24hr Rain Fall
00.02 in.
Sky Condition
Overcast @ 1,200 ft
MVFR

METAR KI69 181322Z AUTO 31006KT 7SM OVC012 01/00 A3016 RMK AO2 T00130000

FAA Disclaimer: The data displayed is for advisory purposes only and is not to be used for flight planning or operations.